sensor_id;sensor_type;location;lat;lon;timestamp;pressure;altitude;pressure_sealevel;temperature;humidity
14253;BME280;7210;51.502;10.722;2022-08-24T00:00:00;99947.34;;;15.47;90.97
14253;BME280;7210;51.502;10.722;2022-08-24T00:02:33;99941.63;;;15.39;90.98
14253;BME280;7210;51.502;10.722;2022-08-24T00:05:04;99936.94;;;15.29;90.67
14253;BME280;7210;51.502;10.722;2022-08-24T00:07:34;99942.78;;;15.26;90.64
14253;BME280;7210;51.502;10.722;2022-08-24T00:10:10;99935.84;;;15.25;90.91
14253;BME280;7210;51.502;10.722;2022-08-24T00:12:40;99943.28;;;15.23;90.79
14253;BME280;7210;51.502;10.722;2022-08-24T00:15:13;99936.81;;;15.19;90.94
14253;BME280;7210;51.502;10.722;2022-08-24T00:17:43;99940.47;;;15.13;91.17
14253;BME280;7210;51.502;10.722;2022-08-24T00:20:13;99921.72;;;15.04;91.36
14253;BME280;7210;51.502;10.722;2022-08-24T00:22:45;99937.94;;;15.02;91.06
14253;BME280;7210;51.502;10.722;2022-08-24T00:25:17;99932.28;;;14.99;91.41
14253;BME280;7210;51.502;10.722;2022-08-24T00:27:47;99933.66;;;15.01;91.67
14253;BME280;7210;51.502;10.722;2022-08-24T00:30:20;99928.59;;;15.00;91.90
14253;BME280;7210;51.502;10.722;2022-08-24T00:32:51;99930.75;;;15.03;92.28
14253;BME280;7210;51.502;10.722;2022-08-24T00:35:22;99930.75;;;15.03;92.61
14253;BME280;7210;51.502;10.722;2022-08-24T00:37:53;99925.13;;;14.99;92.57
14253;BME280;7210;51.502;10.722;2022-08-24T00:40:28;99922.13;;;14.96;92.72
14253;BME280;7210;51.502;10.722;2022-08-24T00:43:01;99923.69;;;14.92;93.01
14253;BME280;7210;51.502;10.722;2022-08-24T00:45:37;99919.09;;;14.87;93.07
14253;BME280;7210;51.502;10.722;2022-08-24T00:48:17;99924.03;;;14.79;92.96
14253;BME280;7210;51.502;10.722;2022-08-24T00:50:54;99930.53;;;14.66;93.39
14253;BME280;7210;51.502;10.722;2022-08-24T00:53:28;99924.94;;;14.68;93.16
14253;BME280;7210;51.502;10.722;2022-08-24T00:56:04;99926.00;;;14.67;93.22
14253;BME280;7210;51.502;10.722;2022-08-24T00:58:36;99931.56;;;14.65;93.34
14253;BME280;7210;51.502;10.722;2022-08-24T01:01:08;99931.19;;;14.57;93.46
14253;BME280;7210;51.502;10.722;2022-08-24T01:03:39;99924.16;;;14.51;93.84
14253;BME280;7210;51.502;10.722;2022-08-24T01:06:08;99928.44;;;14.52;93.68
14253;BME280;7210;51.502;10.722;2022-08-24T01:08:37;99936.19;;;14.53;93.67
14253;BME280;7210;51.502;10.722;2022-08-24T01:11:15;99945.38;;;14.46;93.70
14253;BME280;7210;51.502;10.722;2022-08-24T01:13:47;99946.81;;;14.37;93.79
14253;BME280;7210;51.502;10.722;2022-08-24T01:16:17;99945.16;;;14.31;94.09
14253;BME280;7210;51.502;10.722;2022-08-24T01:19:31;99946.44;;;14.28;94.54
14253;BME280;7210;51.502;10.722;2022-08-24T01:22:13;99931.19;;;14.24;94.93
14253;BME280;7210;51.502;10.722;2022-08-24T01:24:44;99932.00;;;14.24;95.02
14253;BME280;7210;51.502;10.722;2022-08-24T01:27:15;99923.34;;;14.17;95.29
14253;BME280;7210;51.502;10.722;2022-08-24T01:29:44;99928.44;;;14.19;95.72
14253;BME280;7210;51.502;10.722;2022-08-24T01:32:13;99930.97;;;14.14;95.59
14253;BME280;7210;51.502;10.722;2022-08-24T01:34:40;99927.78;;;14.12;95.75
14253;BME280;7210;51.502;10.722;2022-08-24T01:37:10;99923.41;;;14.06;96.13
14253;BME280;7210;51.502;10.722;2022-08-24T01:39:44;99925.84;;;14.07;96.15
14253;BME280;7210;51.502;10.722;2022-08-24T01:42:13;99913.75;;;14.00;96.18
14253;BME280;7210;51.502;10.722;2022-08-24T01:44:44;99918.47;;;13.98;95.96
14253;BME280;7210;51.502;10.722;2022-08-24T01:47:14;99916.00;;;13.91;95.92
14253;BME280;7210;51.502;10.722;2022-08-24T01:49:45;99924.38;;;14.00;95.74
14253;BME280;7210;51.502;10.722;2022-08-24T01:52:17;99930.75;;;13.99;95.70
14253;BME280;7210;51.502;10.722;2022-08-24T01:54:47;99932.59;;;13.98;95.78
14253;BME280;7210;51.502;10.722;2022-08-24T01:57:15;99926.94;;;13.95;95.81
14253;BME280;7210;51.502;10.722;2022-08-24T01:59:43;99938.06;;;13.92;95.84
14253;BME280;7210;51.502;10.722;2022-08-24T02:02:17;99932.09;;;13.85;96.16
14253;BME280;7210;51.502;10.722;2022-08-24T02:07:37;99940.47;;;13.77;97.00
14253;BME280;7210;51.502;10.722;2022-08-24T02:10:11;99932.88;;;13.69;97.18
14253;BME280;7210;51.502;10.722;2022-08-24T02:12:45;99941.78;;;13.63;97.77
14253;BME280;7210;51.502;10.722;2022-08-24T02:18:14;99941.34;;;13.54;98.57
14253;BME280;7210;51.502;10.722;2022-08-24T02:20:42;99943.13;;;13.49;99.17
14253;BME280;7210;51.502;10.722;2022-08-24T02:23:11;99945.78;;;13.49;99.40
14253;BME280;7210;51.502;10.722;2022-08-24T02:25:39;99944.16;;;13.48;99.62
14253;BME280;7210;51.502;10.722;2022-08-24T02:28:07;99945.09;;;13.42;99.69
14253;BME280;7210;51.502;10.722;2022-08-24T02:30:34;99938.75;;;13.43;100.00
14253;BME280;7210;51.502;10.722;2022-08-24T02:33:02;99940.59;;;13.42;100.00
14253;BME280;7210;51.502;10.722;2022-08-24T02:35:31;99939.22;;;13.40;100.00
14253;BME280;7210;51.502;10.722;2022-08-24T02:37:58;99943.72;;;13.39;100.00
14253;BME280;7210;51.502;10.722;2022-08-24T02:40:27;99941.31;;;13.38;100.00
14253;BME280;7210;51.502;10.722;2022-08-24T02:42:56;99941.75;;;13.35;100.00
14253;BME280;7210;51.502;10.722;2022-08-24T02:45:24;99934.78;;;13.29;100.00
14253;BME280;7210;51.502;10.722;2022-08-24T02:47:52;99940.38;;;13.32;99.81
14253;BME280;7210;51.502;10.722;2022-08-24T02:50:21;99938.31;;;13.34;99.36
14253;BME280;7210;51.502;10.722;2022-08-24T02:52:50;99934.06;;;13.33;99.21
14253;BME280;7210;51.502;10.722;2022-08-24T02:55:19;99934.63;;;13.35;99.08
14253;BME280;7210;51.502;10.722;2022-08-24T02:57:48;99925.03;;;13.34;98.97
14253;BME280;7210;51.502;10.722;2022-08-24T03:00:19;99934.06;;;13.33;98.83
14253;BME280;7210;51.502;10.722;2022-08-24T03:02:51;99934.16;;;13.27;98.79
14253;BME280;7210;51.502;10.722;2022-08-24T03:05:19;99926.56;;;13.19;99.06
14253;BME280;7210;51.502;10.722;2022-08-24T03:07:47;99935.59;;;13.18;99.17
14253;BME280;7210;51.502;10.722;2022-08-24T03:10:15;99939.28;;;13.17;99.33
14253;BME280;7210;51.502;10.722;2022-08-24T03:12:44;99938.13;;;13.13;99.68
14253;BME280;7210;51.502;10.722;2022-08-24T03:15:12;99932.72;;;13.08;100.00
14253;BME280;7210;51.502;10.722;2022-08-24T03:17:43;99937.94;;;13.03;100.00
14253;BME280;7210;51.502;10.722;2022-08-24T03:20:21;99940.13;;;13.06;100.00
14253;BME280;7210;51.502;10.722;2022-08-24T03:22:50;99942.19;;;13.04;100.00
14253;BME280;7210;51.502;10.722;2022-08-24T03:25:19;99944.84;;;13.04;100.00
14253;BME280;7210;51.502;10.722;2022-08-24T03:27:50;99943.38;;;12.96;100.00
14253;BME280;7210;51.502;10.722;2022-08-24T03:30:18;99940.16;;;12.94;100.00
14253;BME280;7210;51.502;10.722;2022-08-24T03:32:49;99939.19;;;12.89;100.00
14253;BME280;7210;51.502;10.722;2022-08-24T03:35:17;99938.84;;;12.85;100.00
14253;BME280;7210;51.502;10.722;2022-08-24T03:37:50;99934.81;;;12.83;100.00
14253;BME280;7210;51.502;10.722;2022-08-24T03:40:19;99926.53;;;12.79;100.00
14253;BME280;7210;51.502;10.722;2022-08-24T03:42:48;99926.41;;;12.74;100.00
14253;BME280;7210;51.502;10.722;2022-08-24T03:45:15;99921.78;;;12.70;100.00
14253;BME280;7210;51.502;10.722;2022-08-24T03:47:44;99927.09;;;12.70;100.00
14253;BME280;7210;51.502;10.722;2022-08-24T03:50:13;99928.84;;;12.64;100.00
14253;BME280;7210;51.502;10.722;2022-08-24T03:52:41;99932.88;;;12.67;100.00
14253;BME280;7210;51.502;10.722;2022-08-24T03:55:09;99940.59;;;12.68;100.00
14253;BME280;7210;51.502;10.722;2022-08-24T03:57:37;99937.16;;;12.68;100.00
14253;BME280;7210;51.502;10.722;2022-08-24T04:00:08;99929.63;;;12.65;100.00
14253;BME280;7210;51.502;10.722;2022-08-24T04:02:40;99935.41;;;12.62;100.00
14253;BME280;7210;51.502;10.722;2022-08-24T04:05:14;99943.81;;;12.59;100.00
14253;BME280;7210;51.502;10.722;2022-08-24T04:07:41;99948.53;;;12.57;100.00
14253;BME280;7210;51.502;10.722;2022-08-24T04:10:10;99952.72;;;12.53;100.00
14253;BME280;7210;51.502;10.722;2022-08-24T04:12:40;99959.28;;;12.50;100.00
14253;BME280;7210;51.502;10.722;2022-08-24T04:15:09;99964.09;;;12.53;100.00
14253;BME280;7210;51.502;10.722;2022-08-24T04:17:39;99956.41;;;12.52;100.00
14253;BME280;7210;51.502;10.722;2022-08-24T04:20:09;99955.59;;;12.51;100.00
14253;BME280;7210;51.502;10.722;2022-08-24T04:22:40;99949.25;;;12.52;100.00
14253;BME280;7210;51.502;10.722;2022-08-24T04:25:09;99946.94;;;12.44;100.00
14253;BME280;7210;51.502;10.722;2022-08-24T04:27:39;99957.06;;;12.59;100.00
14253;BME280;7210;51.502;10.722;2022-08-24T04:30:10;99959.97;;;12.69;100.00
14253;BME280;7210;51.502;10.722;2022-08-24T04:33:02;99964.94;;;12.77;100.00
14253;BME280;7210;51.502;10.722;2022-08-24T04:35:30;99961.25;;;12.78;100.00
14253;BME280;7210;51.502;10.722;2022-08-24T04:38:00;99967.38;;;12.78;100.00
14253;BME280;7210;51.502;10.722;2022-08-24T04:40:40;99955.94;;;12.78;100.00
14253;BME280;7210;51.502;10.722;2022-08-24T04:43:09;99964.94;;;12.77;100.00
14253;BME280;7210;51.502;10.722;2022-08-24T04:45:39;99954.31;;;12.77;100.00
14253;BME280;7210;51.502;10.722;2022-08-24T04:48:15;99954.31;;;12.77;100.00
14253;BME280;7210;51.502;10.722;2022-08-24T04:51:08;99964.47;;;12.80;100.00
14253;BME280;7210;51.502;10.722;2022-08-24T04:53:39;99969.19;;;12.78;100.00
14253;BME280;7210;51.502;10.722;2022-08-24T04:56:11;99978.28;;;12.82;100.00
14253;BME280;7210;51.502;10.722;2022-08-24T04:58:39;99976.25;;;12.84;100.00
14253;BME280;7210;51.502;10.722;2022-08-24T05:01:11;99987.44;;;12.86;100.00
14253;BME280;7210;51.502;10.722;2022-08-24T05:03:39;99984.28;;;12.89;100.00
14253;BME280;7210;51.502;10.722;2022-08-24T05:06:12;99976.94;;;12.91;100.00
14253;BME280;7210;51.502;10.722;2022-08-24T05:08:46;99975.63;;;12.93;100.00
14253;BME280;7210;51.502;10.722;2022-08-24T05:11:16;99981.66;;;13.00;100.00
14253;BME280;7210;51.502;10.722;2022-08-24T05:14:08;99984.31;;;13.12;100.00
14253;BME280;7210;51.502;10.722;2022-08-24T05:16:50;99992.03;;;13.25;100.00
14253;BME280;7210;51.502;10.722;2022-08-24T05:19:18;99988.63;;;13.41;100.00
14253;BME280;7210;51.502;10.722;2022-08-24T05:21:48;99983.06;;;13.54;100.00
14253;BME280;7210;51.502;10.722;2022-08-24T05:24:19;99994.72;;;13.64;100.00
14253;BME280;7210;51.502;10.722;2022-08-24T05:26:50;99990.75;;;13.67;100.00
14253;BME280;7210;51.502;10.722;2022-08-24T05:29:20;99987.97;;;13.73;100.00
14253;BME280;7210;51.502;10.722;2022-08-24T05:31:51;99994.28;;;13.84;100.00
14253;BME280;7210;51.502;10.722;2022-08-24T05:34:24;99995.59;;;13.98;100.00
14253;BME280;7210;51.502;10.722;2022-08-24T05:36:53;99996.84;;;14.07;100.00
14253;BME280;7210;51.502;10.722;2022-08-24T05:39:41;99994.72;;;14.20;100.00
14253;BME280;7210;51.502;10.722;2022-08-24T05:42:08;99994.38;;;14.33;100.00
14253;BME280;7210;51.502;10.722;2022-08-24T05:44:45;99987.97;;;14.46;100.00
14253;BME280;7210;51.502;10.722;2022-08-24T05:47:16;99992.47;;;14.62;100.00
14253;BME280;7210;51.502;10.722;2022-08-24T05:49:46;99996.41;;;14.76;100.00
14253;BME280;7210;51.502;10.722;2022-08-24T05:52:18;99988.06;;;14.89;100.00
14253;BME280;7210;51.502;10.722;2022-08-24T05:54:55;99993.06;;;15.02;100.00
14253;BME280;7210;51.502;10.722;2022-08-24T05:57:32;99978.78;;;15.08;100.00
14253;BME280;7210;51.502;10.722;2022-08-24T06:00:21;99986.06;;;15.33;100.00
14253;BME280;7210;51.502;10.722;2022-08-24T06:02:50;99996.91;;;15.48;100.00
14253;BME280;7210;51.502;10.722;2022-08-24T06:05:19;99997.81;;;15.80;100.00
14253;BME280;7210;51.502;10.722;2022-08-24T06:07:47;99986.53;;;16.00;100.00
14253;BME280;7210;51.502;10.722;2022-08-24T06:10:19;99983.22;;;16.14;99.48
14253;BME280;7210;51.502;10.722;2022-08-24T06:12:47;99982.22;;;16.20;98.17
14253;BME280;7210;51.502;10.722;2022-08-24T06:15:14;99985.72;;;16.26;96.93
14253;BME280;7210;51.502;10.722;2022-08-24T06:17:43;99986.28;;;16.54;96.63
14253;BME280;7210;51.502;10.722;2022-08-24T06:20:11;99988.19;;;16.64;95.18
14253;BME280;7210;51.502;10.722;2022-08-24T06:22:39;99984.84;;;16.78;94.81
14253;BME280;7210;51.502;10.722;2022-08-24T06:25:07;99985.44;;;16.85;93.43
14253;BME280;7210;51.502;10.722;2022-08-24T06:27:53;99987.66;;;17.03;93.55
14253;BME280;7210;51.502;10.722;2022-08-24T06:30:21;99987.72;;;17.13;92.28
14253;BME280;7210;51.502;10.722;2022-08-24T06:33:20;99988.34;;;17.25;91.62
14253;BME280;7210;51.502;10.722;2022-08-24T06:35:51;99991.38;;;17.49;91.29
14253;BME280;7210;51.502;10.722;2022-08-24T06:38:19;99985.31;;;17.63;90.46
14253;BME280;7210;51.502;10.722;2022-08-24T06:40:46;99981.84;;;17.73;89.06
14253;BME280;7210;51.502;10.722;2022-08-24T06:43:15;99988.03;;;17.83;88.19
14253;BME280;7210;51.502;10.722;2022-08-24T06:45:50;99990.75;;;17.98;88.08
14253;BME280;7210;51.502;10.722;2022-08-24T06:48:21;99992.88;;;17.96;86.43
14253;BME280;7210;51.502;10.722;2022-08-24T06:50:50;100000.41;;;18.14;86.50
14253;BME280;7210;51.502;10.722;2022-08-24T06:53:17;99998.81;;;18.23;85.82
14253;BME280;7210;51.502;10.722;2022-08-24T06:55:49;100002.03;;;18.25;84.76
14253;BME280;7210;51.502;10.722;2022-08-24T06:58:19;100005.56;;;18.41;84.62
14253;BME280;7210;51.502;10.722;2022-08-24T07:00:47;99987.59;;;18.36;83.33
14253;BME280;7210;51.502;10.722;2022-08-24T07:03:16;99997.81;;;18.49;83.72
14253;BME280;7210;51.502;10.722;2022-08-24T07:05:56;99999.94;;;18.52;83.63
14253;BME280;7210;51.502;10.722;2022-08-24T07:08:41;99998.06;;;18.63;84.08
14253;BME280;7210;51.502;10.722;2022-08-24T07:11:11;99977.41;;;18.63;83.26
14253;BME280;7210;51.502;10.722;2022-08-24T07:13:43;99990.28;;;18.76;83.12
14253;BME280;7210;51.502;10.722;2022-08-24T07:16:12;99990.28;;;18.81;82.49
14253;BME280;7210;51.502;10.722;2022-08-24T07:18:42;99973.63;;;18.94;82.48
14253;BME280;7210;51.502;10.722;2022-08-24T07:21:14;99988.31;;;19.12;82.24
14253;BME280;7210;51.502;10.722;2022-08-24T07:23:46;99996.09;;;19.18;81.74
14253;BME280;7210;51.502;10.722;2022-08-24T07:26:18;99978.66;;;19.21;81.82
14253;BME280;7210;51.502;10.722;2022-08-24T07:28:49;99990.16;;;19.41;81.75
14253;BME280;7210;51.502;10.722;2022-08-24T07:31:17;99983.66;;;19.52;80.80
14253;BME280;7210;51.502;10.722;2022-08-24T07:33:56;99991.66;;;19.62;80.13
14253;BME280;7210;51.502;10.722;2022-08-24T07:36:23;99986.53;;;19.65;79.58
14253;BME280;7210;51.502;10.722;2022-08-24T07:38:56;99997.72;;;19.82;79.68
14253;BME280;7210;51.502;10.722;2022-08-24T07:41:27;99993.09;;;19.93;79.12
14253;BME280;7210;51.502;10.722;2022-08-24T07:43:58;99994.13;;;20.07;78.84
14253;BME280;7210;51.502;10.722;2022-08-24T07:46:25;99988.69;;;20.17;77.65
14253;BME280;7210;51.502;10.722;2022-08-24T07:48:54;99991.06;;;20.23;77.35
14253;BME280;7210;51.502;10.722;2022-08-24T07:51:21;99995.53;;;20.33;76.86
14253;BME280;7210;51.502;10.722;2022-08-24T07:53:49;99990.63;;;20.45;76.82
14253;BME280;7210;51.502;10.722;2022-08-24T07:56:16;99993.28;;;20.50;76.56
14253;BME280;7210;51.502;10.722;2022-08-24T07:58:45;99990.47;;;20.65;76.07
14253;BME280;7210;51.502;10.722;2022-08-24T08:01:15;99998.69;;;20.73;75.83
14253;BME280;7210;51.502;10.722;2022-08-24T08:03:43;99989.47;;;20.84;75.09
14253;BME280;7210;51.502;10.722;2022-08-24T08:06:10;99990.66;;;21.02;74.89
14253;BME280;7210;51.502;10.722;2022-08-24T08:08:40;99992.72;;;21.10;74.52
14253;BME280;7210;51.502;10.722;2022-08-24T08:11:08;100000.13;;;21.23;74.52
14253;BME280;7210;51.502;10.722;2022-08-24T08:13:37;100002.69;;;21.33;74.17
14253;BME280;7210;51.502;10.722;2022-08-24T08:16:06;100002.00;;;21.46;74.03
14253;BME280;7210;51.502;10.722;2022-08-24T08:18:36;99998.53;;;21.64;73.05
14253;BME280;7210;51.502;10.722;2022-08-24T08:21:08;99991.53;;;21.68;72.50
14253;BME280;7210;51.502;10.722;2022-08-24T08:23:56;100001.50;;;21.86;72.38
14253;BME280;7210;51.502;10.722;2022-08-24T08:26:44;100006.63;;;22.06;71.27
14253;BME280;7210;51.502;10.722;2022-08-24T08:29:19;99997.88;;;22.32;70.47
14253;BME280;7210;51.502;10.722;2022-08-24T08:31:46;100010.69;;;22.40;70.24
14253;BME280;7210;51.502;10.722;2022-08-24T08:34:15;100005.75;;;22.47;69.57
14253;BME280;7210;51.502;10.722;2022-08-24T08:36:43;100013.97;;;22.56;69.25
14253;BME280;7210;51.502;10.722;2022-08-24T08:39:15;100003.53;;;22.68;67.99
14253;BME280;7210;51.502;10.722;2022-08-24T08:42:23;100001.34;;;22.83;68.06
14253;BME280;7210;51.502;10.722;2022-08-24T08:45:16;99996.78;;;22.97;67.69
14253;BME280;7210;51.502;10.722;2022-08-24T08:48:25;100002.19;;;23.11;66.67
14253;BME280;7210;51.502;10.722;2022-08-24T08:51:23;100000.00;;;23.13;66.78
14253;BME280;7210;51.502;10.722;2022-08-24T08:54:39;100003.66;;;23.22;66.38
14253;BME280;7210;51.502;10.722;2022-08-24T08:57:29;99997.03;;;23.28;65.70
14253;BME280;7210;51.502;10.722;2022-08-24T09:00:14;100005.03;;;23.33;66.15
14253;BME280;7210;51.502;10.722;2022-08-24T09:03:19;99997.56;;;23.43;65.33
14253;BME280;7210;51.502;10.722;2022-08-24T09:06:45;99991.41;;;23.65;63.97
14253;BME280;7210;51.502;10.722;2022-08-24T09:09:48;99999.19;;;23.79;63.46
14253;BME280;7210;51.502;10.722;2022-08-24T09:12:29;99992.00;;;23.88;62.91
14253;BME280;7210;51.502;10.722;2022-08-24T09:15:35;99995.59;;;23.97;62.70
14253;BME280;7210;51.502;10.722;2022-08-24T09:18:22;99995.38;;;24.07;62.50
14253;BME280;7210;51.502;10.722;2022-08-24T09:21:23;99993.16;;;24.09;62.20
14253;BME280;7210;51.502;10.722;2022-08-24T09:24:24;99997.34;;;24.15;62.73
14253;BME280;7210;51.502;10.722;2022-08-24T09:27:15;99990.09;;;24.24;61.95
14253;BME280;7210;51.502;10.722;2022-08-24T09:30:06;99995.25;;;24.34;61.42
14253;BME280;7210;51.502;10.722;2022-08-24T09:32:59;99993.78;;;24.50;61.03
14253;BME280;7210;51.502;10.722;2022-08-24T09:35:49;99992.78;;;24.60;60.67
14253;BME280;7210;51.502;10.722;2022-08-24T09:38:41;99988.84;;;24.66;60.32
14253;BME280;7210;51.502;10.722;2022-08-24T09:45:03;99986.28;;;24.91;57.83
14253;BME280;7210;51.502;10.722;2022-08-24T09:48:32;99982.66;;;25.04;57.80
14253;BME280;7210;51.502;10.722;2022-08-24T09:51:56;99984.97;;;25.19;57.90
14253;BME280;7210;51.502;10.722;2022-08-24T09:58:09;99978.84;;;25.36;57.31
14253;BME280;7210;51.502;10.722;2022-08-24T10:00:44;99979.88;;;25.57;55.34
14253;BME280;7210;51.502;10.722;2022-08-24T10:03:30;99982.72;;;25.60;55.77
14253;BME280;7210;51.502;10.722;2022-08-24T10:06:19;99977.66;;;25.59;55.47
14253;BME280;7210;51.502;10.722;2022-08-24T10:09:21;99981.63;;;25.70;54.37
14253;BME280;7210;51.502;10.722;2022-08-24T10:12:13;99979.75;;;25.70;54.08
14253;BME280;7210;51.502;10.722;2022-08-24T10:14:55;99974.97;;;25.84;53.71
14253;BME280;7210;51.502;10.722;2022-08-24T10:17:41;99984.41;;;25.95;52.65
14253;BME280;7210;51.502;10.722;2022-08-24T10:20:21;99975.34;;;26.08;53.58
14253;BME280;7210;51.502;10.722;2022-08-24T10:23:05;99982.03;;;26.19;54.11
14253;BME280;7210;51.502;10.722;2022-08-24T10:25:43;99975.34;;;26.25;52.46
14253;BME280;7210;51.502;10.722;2022-08-24T10:28:42;99983.91;;;26.44;52.30
14253;BME280;7210;51.502;10.722;2022-08-24T10:31:22;99973.06;;;26.61;51.39
14253;BME280;7210;51.502;10.722;2022-08-24T10:34:06;99977.19;;;26.76;50.08
14253;BME280;7210;51.502;10.722;2022-08-24T10:37:10;99967.72;;;26.90;47.51
14253;BME280;7210;51.502;10.722;2022-08-24T10:40:12;99972.16;;;27.03;47.63
14253;BME280;7210;51.502;10.722;2022-08-24T10:43:25;99974.69;;;27.08;46.75
14253;BME280;7210;51.502;10.722;2022-08-24T10:46:53;99972.22;;;27.32;47.22
14253;BME280;7210;51.502;10.722;2022-08-24T10:50:15;99980.97;;;27.38;47.57
14253;BME280;7210;51.502;10.722;2022-08-24T10:53:24;99976.16;;;27.43;47.61
14253;BME280;7210;51.502;10.722;2022-08-24T10:56:10;99967.63;;;27.53;47.63
14253;BME280;7210;51.502;10.722;2022-08-24T10:58:57;99966.59;;;27.66;47.64
14253;BME280;7210;51.502;10.722;2022-08-24T11:01:32;99953.38;;;27.56;44.91
14253;BME280;7210;51.502;10.722;2022-08-24T11:04:08;99960.47;;;27.69;46.59
14253;BME280;7210;51.502;10.722;2022-08-24T11:06:38;99954.56;;;27.76;46.77
14253;BME280;7210;51.502;10.722;2022-08-24T11:09:10;99960.59;;;27.81;46.74
14253;BME280;7210;51.502;10.722;2022-08-24T11:11:40;99973.78;;;27.91;47.52
14253;BME280;7210;51.502;10.722;2022-08-24T11:14:24;99963.72;;;28.12;46.13
14253;BME280;7210;51.502;10.722;2022-08-24T11:16:52;99975.69;;;28.32;46.62
14253;BME280;7210;51.502;10.722;2022-08-24T11:19:32;99965.94;;;28.31;45.95
14253;BME280;7210;51.502;10.722;2022-08-24T11:22:04;99965.44;;;28.37;46.04
14253;BME280;7210;51.502;10.722;2022-08-24T11:24:42;99961.81;;;28.45;46.74
14253;BME280;7210;51.502;10.722;2022-08-24T11:27:25;99972.31;;;28.35;46.50
14253;BME280;7210;51.502;10.722;2022-08-24T11:30:05;99957.72;;;28.39;46.30
14253;BME280;7210;51.502;10.722;2022-08-24T11:32:41;99971.75;;;28.61;46.28
14253;BME280;7210;51.502;10.722;2022-08-24T11:35:22;99960.09;;;28.73;45.69
14253;BME280;7210;51.502;10.722;2022-08-24T11:37:54;99973.66;;;28.93;46.25
14253;BME280;7210;51.502;10.722;2022-08-24T11:40:35;99974.28;;;29.11;45.17
14253;BME280;7210;51.502;10.722;2022-08-24T11:43:23;99967.44;;;29.17;44.97
14253;BME280;7210;51.502;10.722;2022-08-24T11:46:06;99969.72;;;29.15;44.11
14253;BME280;7210;51.502;10.722;2022-08-24T11:48:52;99967.25;;;29.34;43.22
14253;BME280;7210;51.502;10.722;2022-08-24T11:51:35;99967.13;;;29.54;42.28
14253;BME280;7210;51.502;10.722;2022-08-24T11:54:18;99975.28;;;29.66;43.64
14253;BME280;7210;51.502;10.722;2022-08-24T11:57:08;99968.63;;;29.52;42.97
14253;BME280;7210;51.502;10.722;2022-08-24T11:59:46;99968.63;;;29.52;42.86
14253;BME280;7210;51.502;10.722;2022-08-24T12:02:25;99968.81;;;29.47;43.81
14253;BME280;7210;51.502;10.722;2022-08-24T12:05:00;99976.09;;;29.67;43.25
14253;BME280;7210;51.502;10.722;2022-08-24T12:07:46;99982.88;;;29.85;43.00
14253;BME280;7210;51.502;10.722;2022-08-24T12:10:26;99977.19;;;29.78;42.13
14253;BME280;7210;51.502;10.722;2022-08-24T12:13:05;99986.25;;;29.94;42.57
14253;BME280;7210;51.502;10.722;2022-08-24T12:15:44;99968.25;;;30.17;41.88
14253;BME280;7210;51.502;10.722;2022-08-24T12:18:27;99978.00;;;30.30;41.13
14253;BME280;7210;51.502;10.722;2022-08-24T12:20:56;99984.00;;;30.35;41.62
14253;BME280;7210;51.502;10.722;2022-08-24T12:23:34;99985.69;;;30.40;42.08
14253;BME280;7210;51.502;10.722;2022-08-24T12:26:10;99985.63;;;30.52;41.31
14253;BME280;7210;51.502;10.722;2022-08-24T12:28:42;99989.47;;;30.63;40.62
14253;BME280;7210;51.502;10.722;2022-08-24T12:31:18;99983.75;;;30.68;40.07
14253;BME280;7210;51.502;10.722;2022-08-24T12:33:52;99995.50;;;30.84;40.84
14253;BME280;7210;51.502;10.722;2022-08-24T12:36:27;99989.97;;;30.96;40.46
14253;BME280;7210;51.502;10.722;2022-08-24T12:39:08;99995.50;;;30.99;39.69
14253;BME280;7210;51.502;10.722;2022-08-24T12:41:50;99992.97;;;31.06;40.62
14253;BME280;7210;51.502;10.722;2022-08-24T12:44:27;99986.88;;;30.97;40.34
14253;BME280;7210;51.502;10.722;2022-08-24T12:46:58;99984.56;;;30.99;40.60
14253;BME280;7210;51.502;10.722;2022-08-24T12:49:30;99991.91;;;30.95;40.93
14253;BME280;7210;51.502;10.722;2022-08-24T12:52:27;99995.22;;;31.16;41.29
14253;BME280;7210;51.502;10.722;2022-08-24T12:55:21;100001.34;;;31.44;40.91
14253;BME280;7210;51.502;10.722;2022-08-24T12:58:04;99987.88;;;31.36;40.39
14253;BME280;7210;51.502;10.722;2022-08-24T13:00:40;100000.91;;;31.58;40.35
14253;BME280;7210;51.502;10.722;2022-08-24T13:03:26;99990.19;;;31.84;39.45
14253;BME280;7210;51.502;10.722;2022-08-24T13:06:01;99998.09;;;31.70;39.76
14253;BME280;7210;51.502;10.722;2022-08-24T13:08:36;99994.22;;;31.55;38.75
14253;BME280;7210;51.502;10.722;2022-08-24T13:11:12;99990.25;;;31.37;39.13
14253;BME280;7210;51.502;10.722;2022-08-24T13:13:48;100001.34;;;31.44;39.13
14253;BME280;7210;51.502;10.722;2022-08-24T13:17:07;100004.63;;;31.50;39.99
14253;BME280;7210;51.502;10.722;2022-08-24T13:19:39;100003.91;;;31.53;39.77
14253;BME280;7210;51.502;10.722;2022-08-24T13:22:47;100004.69;;;31.69;38.83
14253;BME280;7210;51.502;10.722;2022-08-24T13:25:51;100003.00;;;31.80;38.84
14253;BME280;7210;51.502;10.722;2022-08-24T13:28:40;99995.94;;;31.79;38.84
14253;BME280;7210;51.502;10.722;2022-08-24T13:31:24;99988.13;;;31.77;38.62
14253;BME280;7210;51.502;10.722;2022-08-24T13:33:58;99976.19;;;31.70;38.13
14253;BME280;7210;51.502;10.722;2022-08-24T13:37:01;99981.94;;;31.49;38.29
14253;BME280;7210;51.502;10.722;2022-08-24T13:40:03;99980.63;;;31.59;39.05
14253;BME280;7210;51.502;10.722;2022-08-24T13:43:04;99983.94;;;31.68;38.45
14253;BME280;7210;51.502;10.722;2022-08-24T13:45:44;99984.31;;;31.82;38.17
14253;BME280;7210;51.502;10.722;2022-08-24T13:48:26;99981.69;;;31.70;37.74
14253;BME280;7210;51.502;10.722;2022-08-24T13:51:24;99980.94;;;31.73;37.99
14253;BME280;7210;51.502;10.722;2022-08-24T13:54:09;99990.84;;;31.62;37.86
14253;BME280;7210;51.502;10.722;2022-08-24T13:57:10;99989.97;;;31.58;37.47
14253;BME280;7210;51.502;10.722;2022-08-24T14:00:08;99979.56;;;31.48;37.40
14253;BME280;7210;51.502;10.722;2022-08-24T14:03:00;99975.88;;;31.25;37.91